createdAt,value
2023-01-18T00:01:05.074Z,3.00
2023-01-18T00:03:36.203Z,3.00
2023-01-18T00:06:07.967Z,3.00
2023-01-18T00:08:42.624Z,3.00
2023-01-18T00:11:19.153Z,3.00
2023-01-18T00:13:49.906Z,3.00
2023-01-18T00:16:26.132Z,3.00
2023-01-18T00:19:00.954Z,3.00
2023-01-18T00:21:31.531Z,3.00
2023-01-18T00:24:04.388Z,3.10
2023-01-18T00:26:34.735Z,3.10
2023-01-18T00:29:10.473Z,3.00
2023-01-18T00:31:41.296Z,3.00
2023-01-18T00:34:11.654Z,3.10
2023-01-18T00:36:42.131Z,3.00
2023-01-18T00:39:17.598Z,2.90
2023-01-18T00:42:00.093Z,2.90
2023-01-18T00:44:30.483Z,3.00
2023-01-18T00:47:01.109Z,2.90
2023-01-18T00:49:31.368Z,3.00
2023-01-18T00:52:01.697Z,2.90
2023-01-18T00:54:34.632Z,2.90
2023-01-18T00:57:05.031Z,2.90
2023-01-18T00:59:35.374Z,3.00
2023-01-18T01:02:05.883Z,2.90
2023-01-18T01:04:48.662Z,2.90
2023-01-18T01:07:19.016Z,2.90
2023-01-18T01:09:51.966Z,2.90
2023-01-18T01:12:34.868Z,2.80
2023-01-18T01:15:17.582Z,2.90
2023-01-18T01:18:00.320Z,2.80
2023-01-18T01:20:42.956Z,2.80
2023-01-18T01:23:27.499Z,2.80
2023-01-18T01:26:08.009Z,2.80
2023-01-18T01:28:38.882Z,2.80
2023-01-18T01:31:11.404Z,2.90
2023-01-18T01:33:42.301Z,2.80
2023-01-18T01:36:16.510Z,2.70
2023-01-18T01:38:47.077Z,2.80
2023-01-18T01:41:25.459Z,2.80
2023-01-18T01:43:57.424Z,2.70
2023-01-18T01:46:35.732Z,2.80
2023-01-18T01:49:11.621Z,2.60
2023-01-18T01:51:45.272Z,2.70
2023-01-18T01:54:19.921Z,2.70
2023-01-18T01:56:55.757Z,2.70
2023-01-18T01:59:27.133Z,2.80
2023-01-18T02:01:57.439Z,2.60
2023-01-18T02:04:28.090Z,2.80
2023-01-18T02:06:58.363Z,2.70
2023-01-18T02:09:29.066Z,2.70
2023-01-18T02:12:03.171Z,2.70
2023-01-18T02:14:34.852Z,2.60
2023-01-18T02:17:21.421Z,2.70
2023-01-18T02:20:20.364Z,2.60
2023-01-18T02:23:18.279Z,2.60
2023-01-18T02:26:07.945Z,2.60
2023-01-18T02:28:42.558Z,2.70
2023-01-18T02:31:18.862Z,2.60
2023-01-18T02:33:55.696Z,2.60
2023-01-18T02:36:36.703Z,2.60
2023-01-18T02:39:13.441Z,2.60
2023-01-18T02:42:03.743Z,2.60
2023-01-18T02:44:53.850Z,2.50
2023-01-18T02:47:25.878Z,2.50
2023-01-18T02:49:56.270Z,2.50
2023-01-18T02:52:42.187Z,2.50
2023-01-18T02:55:18.861Z,2.60
2023-01-18T02:57:49.580Z,2.60
2023-01-18T03:00:23.812Z,2.60
2023-01-18T03:02:57.040Z,2.50
2023-01-18T03:05:29.266Z,2.50
2023-01-18T03:08:09.663Z,2.60
2023-01-18T03:10:47.871Z,2.60
2023-01-18T03:13:25.526Z,2.50
2023-01-18T03:16:03.366Z,2.50
2023-01-18T03:19:03.112Z,2.40
2023-01-18T03:21:40.613Z,2.50
2023-01-18T03:24:11.602Z,2.50
2023-01-18T03:26:47.214Z,2.50
2023-01-18T03:29:31.997Z,2.50
2023-01-18T03:32:23.502Z,2.50
2023-01-18T03:34:58.867Z,2.50
2023-01-18T03:37:32.448Z,2.50
2023-01-18T03:40:05.468Z,2.40
2023-01-18T03:42:45.067Z,2.40
2023-01-18T03:45:20.721Z,2.50
2023-01-18T03:47:53.716Z,2.50
2023-01-18T03:50:30.191Z,2.40
2023-01-18T03:53:06.529Z,2.30
2023-01-18T03:55:44.612Z,2.40
2023-01-18T03:58:18.111Z,2.40
2023-01-18T04:00:48.688Z,2.30
2023-01-18T04:03:21.675Z,2.40
2023-01-18T04:05:53.226Z,2.40
2023-01-18T04:08:24.317Z,2.40
2023-01-18T04:10:54.895Z,2.30
2023-01-18T04:13:25.896Z,2.30
2023-01-18T04:15:56.488Z,2.40
2023-01-18T04:18:29.391Z,2.30
2023-01-18T04:21:00.162Z,2.30
2023-01-18T04:23:31.595Z,2.40
2023-01-18T04:26:02.004Z,2.30
2023-01-18T04:28:34.684Z,2.30
2023-01-18T04:31:05.030Z,2.30
2023-01-18T04:33:38.716Z,2.40
2023-01-18T04:36:10.483Z,2.40
2023-01-18T04:38:42.172Z,2.40
2023-01-18T04:41:12.575Z,2.40
2023-01-18T04:43:43.571Z,2.40
2023-01-18T04:46:18.451Z,2.40
2023-01-18T04:48:53.656Z,2.40
2023-01-18T04:51:24.855Z,2.50
2023-01-18T04:53:55.230Z,2.40
2023-01-18T04:56:26.374Z,2.40
2023-01-18T04:58:59.795Z,2.30
2023-01-18T05:01:30.508Z,2.50
2023-01-18T05:04:03.992Z,2.40
2023-01-18T05:06:34.835Z,2.50
2023-01-18T05:09:05.230Z,2.40
2023-01-18T05:11:36.137Z,2.40
2023-01-18T05:14:06.744Z,2.30
2023-01-18T05:16:37.725Z,2.40
2023-01-18T05:19:11.174Z,2.30
2023-01-18T05:21:41.717Z,2.30
2023-01-18T05:24:12.235Z,2.40
2023-01-18T05:26:42.792Z,2.40
2023-01-18T05:29:13.681Z,2.40
2023-01-18T05:31:44.517Z,2.40
2023-01-18T05:34:17.812Z,2.40
2023-01-18T05:36:49.590Z,2.40
2023-01-18T05:39:19.987Z,2.40
2023-01-18T05:41:51.673Z,2.40
2023-01-18T05:44:22.143Z,2.40
2023-01-18T05:46:52.711Z,2.40
2023-01-18T05:49:25.947Z,2.40
2023-01-18T05:51:56.463Z,2.40
2023-01-18T05:54:27.046Z,2.40
2023-01-18T05:56:58.350Z,2.40
2023-01-18T05:59:28.808Z,2.40
2023-01-18T06:01:59.467Z,2.40
2023-01-18T06:04:32.439Z,2.30
2023-01-18T06:07:03.850Z,2.40
2023-01-18T06:09:34.171Z,2.20
2023-01-18T06:12:04.754Z,2.30
2023-01-18T06:14:35.343Z,2.40
2023-01-18T06:17:07.044Z,2.40
2023-01-18T06:19:42.048Z,2.20
2023-01-18T06:22:12.500Z,2.20
2023-01-18T06:24:42.890Z,2.30
2023-01-18T06:27:13.580Z,2.30
2023-01-18T06:29:44.076Z,2.20
2023-01-18T06:32:14.751Z,2.20
2023-01-18T06:34:47.710Z,2.20
2023-01-18T06:37:18.406Z,2.30
2023-01-18T06:39:48.791Z,2.20
2023-01-18T06:42:20.492Z,2.10
2023-01-18T06:44:53.871Z,2.10
2023-01-18T06:47:28.051Z,2.10
2023-01-18T06:50:03.693Z,2.00
2023-01-18T06:52:34.509Z,2.10
2023-01-18T06:55:04.860Z,2.00
2023-01-18T06:57:35.403Z,2.00
2023-01-18T07:00:07.170Z,2.00
2023-01-18T07:02:38.647Z,2.00
2023-01-18T07:05:12.415Z,2.10
2023-01-18T07:07:43.240Z,2.10
2023-01-18T07:10:16.613Z,2.10
2023-01-18T07:12:49.126Z,2.10
2023-01-18T07:15:22.580Z,2.10
2023-01-18T07:17:53.461Z,2.10
2023-01-18T07:20:26.440Z,2.10
2023-01-18T07:22:57.463Z,2.00
2023-01-18T07:25:32.225Z,2.10
2023-01-18T07:28:05.020Z,1.90
2023-01-18T07:30:35.452Z,2.00
2023-01-18T07:33:07.446Z,2.10
2023-01-18T07:35:40.434Z,2.00
2023-01-18T07:38:11.637Z,1.90
2023-01-18T07:40:42.124Z,2.00
2023-01-18T07:43:12.818Z,2.00
2023-01-18T07:45:43.191Z,2.10
2023-01-18T07:48:14.025Z,2.00
2023-01-18T07:50:48.049Z,2.00
2023-01-18T07:53:19.243Z,1.90
2023-01-18T07:55:49.955Z,2.00
2023-01-18T07:58:33.855Z,1.90
2023-01-18T08:01:10.478Z,1.90
2023-01-18T08:03:41.921Z,1.90
2023-01-18T08:06:17.211Z,2.00
2023-01-18T08:08:48.381Z,1.80
2023-01-18T08:11:19.332Z,1.80
2023-01-18T08:13:50.750Z,1.90
2023-01-18T08:16:21.523Z,2.00
2023-01-18T08:18:52.443Z,2.00
2023-01-18T08:21:25.393Z,1.90
2023-01-18T08:23:56.496Z,1.90
2023-01-18T08:26:26.895Z,1.90
2023-01-18T08:28:57.436Z,1.90
2023-01-18T08:31:27.797Z,1.90
2023-01-18T08:33:58.307Z,1.90
2023-01-18T08:36:31.936Z,1.90
2023-01-18T08:39:02.329Z,1.90
2023-01-18T08:41:32.671Z,1.90
2023-01-18T08:44:03.394Z,1.90
2023-01-18T08:46:33.867Z,2.00
2023-01-18T08:49:05.968Z,1.90
2023-01-18T08:51:39.031Z,2.00
2023-01-18T08:54:09.592Z,2.10
2023-01-18T08:56:40.052Z,2.00
2023-01-18T08:59:11.666Z,2.00
2023-01-18T09:01:42.072Z,2.00
2023-01-18T09:04:12.602Z,2.10
2023-01-18T09:06:47.454Z,2.20
2023-01-18T09:09:18.627Z,2.20
2023-01-18T09:11:48.972Z,2.20
2023-01-18T09:14:19.469Z,2.20
2023-01-18T09:16:51.555Z,2.20
2023-01-18T09:19:21.967Z,2.10
2023-01-18T09:21:55.258Z,2.20
2023-01-18T09:24:25.737Z,2.20
2023-01-18T09:26:56.824Z,2.30
2023-01-18T09:29:27.312Z,2.30
2023-01-18T09:31:57.693Z,2.30
2023-01-18T09:34:28.113Z,2.20
2023-01-18T09:37:01.002Z,2.30
2023-01-18T09:39:37.620Z,2.50
2023-01-18T09:42:22.143Z,2.40
2023-01-18T09:44:54.982Z,2.30
2023-01-18T09:47:28.419Z,2.50
2023-01-18T09:50:02.464Z,2.40
2023-01-18T09:52:46.018Z,2.40
2023-01-18T09:55:26.040Z,2.30
2023-01-18T09:58:10.069Z,2.50
2023-01-18T10:00:45.217Z,2.30
2023-01-18T10:03:21.714Z,2.30
2023-01-18T10:06:08.698Z,2.40
2023-01-18T10:08:49.788Z,2.40
2023-01-18T10:11:28.303Z,2.40
2023-01-18T10:14:03.375Z,2.40
2023-01-18T10:16:34.855Z,2.60
2023-01-18T10:19:05.448Z,2.50
2023-01-18T10:21:54.741Z,2.60
2023-01-18T10:24:47.411Z,2.60
2023-01-18T10:27:37.698Z,2.60
2023-01-18T10:30:33.753Z,2.70
2023-01-18T10:33:06.952Z,2.70
2023-01-18T10:35:42.988Z,2.70
2023-01-18T10:38:19.112Z,2.80
2023-01-18T10:40:59.070Z,2.80
2023-01-18T10:43:31.982Z,2.90
2023-01-18T10:46:02.379Z,2.90
2023-01-18T10:48:34.972Z,3.00
2023-01-18T10:51:08.189Z,3.00
2023-01-18T10:53:40.405Z,3.00
2023-01-18T10:56:19.491Z,3.10
2023-01-18T10:58:57.925Z,3.20
2023-01-18T11:01:29.277Z,3.20
2023-01-18T11:04:06.189Z,3.20
2023-01-18T11:06:48.594Z,3.40
2023-01-18T11:09:43.740Z,3.40
2023-01-18T11:12:41.620Z,3.40
2023-01-18T11:15:31.987Z,3.40
2023-01-18T11:18:06.657Z,3.50
2023-01-18T11:20:44.819Z,3.50
2023-01-18T11:23:25.557Z,3.60
2023-01-18T11:26:02.301Z,3.70
2023-01-18T11:28:40.527Z,3.80
2023-01-18T11:31:14.884Z,3.80
2023-01-18T11:33:53.635Z,3.80
2023-01-18T11:36:36.211Z,3.90
2023-01-18T11:39:22.541Z,4.20
2023-01-18T11:41:53.426Z,4.20
2023-01-18T11:44:29.151Z,4.10
2023-01-18T11:47:04.113Z,4.10
2023-01-18T11:49:52.369Z,4.10
2023-01-18T11:52:34.498Z,4.20
2023-01-18T11:55:10.802Z,4.20
2023-01-18T11:57:41.187Z,4.30
2023-01-18T12:00:18.375Z,4.30
2023-01-18T12:03:07.846Z,4.30
2023-01-18T12:05:50.087Z,4.40
2023-01-18T12:08:49.428Z,4.40
2023-01-18T12:11:41.113Z,4.50
2023-01-18T12:14:25.028Z,4.50
2023-01-18T12:17:14.184Z,4.40
2023-01-18T12:19:55.772Z,4.50
2023-01-18T12:23:00.573Z,4.50
2023-01-18T12:26:06.794Z,4.60
2023-01-18T12:28:50.732Z,4.70
2023-01-18T12:31:28.499Z,4.70
2023-01-18T12:34:10.579Z,4.80
2023-01-18T12:36:54.705Z,4.80
2023-01-18T12:39:36.935Z,4.90
2023-01-18T12:42:12.439Z,4.90
2023-01-18T12:45:07.341Z,4.90
2023-01-18T12:47:41.057Z,5.10
2023-01-18T12:50:22.980Z,5.10
2023-01-18T12:52:57.898Z,5.00
2023-01-18T12:55:32.317Z,5.10
2023-01-18T12:58:04.543Z,5.10
2023-01-18T13:00:39.420Z,5.10
2023-01-18T13:03:15.943Z,5.20
2023-01-18T13:05:54.073Z,5.20
2023-01-18T13:08:39.365Z,5.20
2023-01-18T13:11:13.747Z,5.20
2023-01-18T13:13:45.593Z,5.20
2023-01-18T13:16:24.536Z,5.30
2023-01-18T13:19:01.926Z,5.30
2023-01-18T13:21:50.627Z,5.30
2023-01-18T13:24:31.461Z,5.30
2023-01-18T13:27:12.894Z,5.30
2023-01-18T13:29:44.301Z,5.30
2023-01-18T13:32:32.156Z,5.30
2023-01-18T13:35:19.688Z,5.40
2023-01-18T13:37:56.366Z,5.40
2023-01-18T13:40:29.994Z,5.40
2023-01-18T13:43:00.462Z,5.40
2023-01-18T13:45:32.643Z,5.50
2023-01-18T13:48:07.989Z,5.50
2023-01-18T13:50:48.486Z,5.50
2023-01-18T13:53:31.848Z,5.50
2023-01-18T13:56:30.081Z,5.50
2023-01-18T13:59:03.471Z,5.50
2023-01-18T14:01:37.414Z,5.60
2023-01-18T14:04:29.510Z,5.60
2023-01-18T14:07:02.138Z,5.60
2023-01-18T14:09:41.389Z,5.70
2023-01-18T14:12:14.948Z,5.50
2023-01-18T14:14:57.077Z,5.60
2023-01-18T14:17:28.644Z,5.60
2023-01-18T14:20:32.149Z,5.60
2023-01-18T14:23:16.623Z,5.60
2023-01-18T14:26:09.084Z,5.60
2023-01-18T14:28:45.631Z,5.60
2023-01-18T14:31:19.767Z,5.50
2023-01-18T14:33:51.245Z,5.60
2023-01-18T14:36:26.895Z,5.60
2023-01-18T14:39:17.634Z,5.60
2023-01-18T14:41:53.994Z,5.60
2023-01-18T14:44:27.765Z,5.50
2023-01-18T14:47:05.912Z,5.60
2023-01-18T14:49:44.814Z,5.60
2023-01-18T14:52:18.070Z,5.60
2023-01-18T14:54:54.957Z,5.60
2023-01-18T14:57:28.173Z,5.50
2023-01-18T14:59:59.958Z,5.50
2023-01-18T15:02:34.007Z,5.60
2023-01-18T15:05:17.039Z,5.50
2023-01-18T15:07:53.226Z,5.50
2023-01-18T15:10:25.199Z,5.40
2023-01-18T15:13:01.043Z,5.40
2023-01-18T15:15:35.161Z,5.50
2023-01-18T15:18:10.696Z,5.40
2023-01-18T15:20:51.273Z,5.40
2023-01-18T15:23:22.032Z,5.40
2023-01-18T15:25:54.218Z,5.40
2023-01-18T15:28:34.102Z,5.40
2023-01-18T15:31:14.220Z,5.40
2023-01-18T15:33:46.782Z,5.40
2023-01-18T15:36:17.768Z,5.40
2023-01-18T15:38:48.255Z,5.30
2023-01-18T15:41:19.808Z,5.30
2023-01-18T15:43:52.890Z,5.30
2023-01-18T15:46:25.401Z,5.20
2023-01-18T15:48:59.398Z,5.30
2023-01-18T15:51:42.149Z,5.20
2023-01-18T15:54:19.013Z,5.20
2023-01-18T15:56:50.053Z,5.10
2023-01-18T15:59:25.649Z,5.20
2023-01-18T16:02:18.902Z,5.10
2023-01-18T16:04:49.838Z,5.10
2023-01-18T16:07:42.133Z,5.10
2023-01-18T16:10:31.036Z,5.20
2023-01-18T16:13:25.919Z,5.10
2023-01-18T16:16:18.936Z,5.10
2023-01-18T16:18:52.422Z,5.00
2023-01-18T16:21:41.889Z,5.20
2023-01-18T16:24:37.762Z,5.10
2023-01-18T16:27:13.247Z,5.00
2023-01-18T16:29:48.876Z,4.90
2023-01-18T16:32:31.553Z,4.90
2023-01-18T16:35:03.759Z,4.80
2023-01-18T16:37:34.108Z,4.90
2023-01-18T16:40:04.743Z,4.80
2023-01-18T16:42:38.434Z,4.70
2023-01-18T16:45:16.513Z,4.80
2023-01-18T16:47:49.441Z,4.80
2023-01-18T16:50:21.786Z,4.80
2023-01-18T16:52:52.132Z,4.80
2023-01-18T16:55:22.913Z,4.80
2023-01-18T16:57:53.231Z,4.80
2023-01-18T17:00:26.065Z,4.80
2023-01-18T17:02:59.436Z,4.70
2023-01-18T17:05:31.744Z,4.70
2023-01-18T17:08:02.365Z,4.70
2023-01-18T17:10:39.238Z,4.70
2023-01-18T17:13:09.864Z,4.70
2023-01-18T17:15:42.128Z,4.80
2023-01-18T17:18:18.183Z,4.70
2023-01-18T17:20:48.830Z,4.70
2023-01-18T17:23:19.844Z,4.70
2023-01-18T17:25:50.321Z,4.70
2023-01-18T17:28:22.367Z,4.70
2023-01-18T17:30:53.361Z,4.60
2023-01-18T17:33:28.517Z,4.60
2023-01-18T17:35:58.995Z,4.70
2023-01-18T17:41:01.604Z,4.60
2023-01-18T17:43:34.197Z,4.60
2023-01-18T17:46:06.420Z,4.70
2023-01-18T17:48:39.825Z,4.60
2023-01-18T17:51:11.226Z,4.50
2023-01-18T17:53:42.887Z,4.50
2023-01-18T17:56:15.307Z,4.50
2023-01-18T17:58:48.827Z,4.50
2023-01-18T18:01:20.003Z,4.50
2023-01-18T18:03:54.563Z,4.50
2023-01-18T18:06:31.267Z,4.50
2023-01-18T18:09:02.302Z,4.50
2023-01-18T18:11:32.861Z,4.50
2023-01-18T18:14:03.287Z,4.40
2023-01-18T18:16:40.861Z,4.40
2023-01-18T18:19:17.024Z,4.50
2023-01-18T18:21:48.096Z,4.40
2023-01-18T18:24:18.698Z,4.40
2023-01-18T18:26:49.240Z,4.40
2023-01-18T18:29:19.844Z,4.40
2023-01-18T18:31:50.468Z,4.30
2023-01-18T18:34:23.410Z,4.30
2023-01-18T18:36:53.957Z,4.40
2023-01-18T18:39:24.461Z,4.30
2023-01-18T18:41:55.130Z,4.30
2023-01-18T18:44:25.430Z,4.30
2023-01-18T18:46:56.066Z,4.30
2023-01-18T18:49:29.222Z,4.30
2023-01-18T18:52:00.462Z,4.20
2023-01-18T18:54:30.844Z,4.30
2023-01-18T18:57:03.621Z,4.30
2023-01-18T18:59:33.934Z,4.30
2023-01-18T19:02:04.594Z,4.30
2023-01-18T19:04:37.571Z,4.20
2023-01-18T19:07:08.357Z,4.30
2023-01-18T19:09:38.847Z,4.20
2023-01-18T19:12:09.655Z,4.20
2023-01-18T19:14:39.945Z,4.30
2023-01-18T19:17:15.824Z,4.20
2023-01-18T19:19:54.774Z,4.20
2023-01-18T19:22:25.332Z,4.30
2023-01-18T19:24:55.761Z,4.20
2023-01-18T19:27:26.395Z,4.20
2023-01-18T19:29:57.118Z,4.20
2023-01-18T19:32:27.794Z,4.20
2023-01-18T19:35:00.697Z,4.30
2023-01-18T19:37:31.198Z,4.20
2023-01-18T19:40:01.505Z,4.30
2023-01-18T19:42:32.222Z,4.20
2023-01-18T19:45:04.703Z,4.20
2023-01-18T19:47:35.676Z,4.20
2023-01-18T19:50:09.637Z,4.20
2023-01-18T19:52:40.137Z,4.20
2023-01-18T19:55:11.581Z,4.20
2023-01-18T19:57:42.263Z,4.30
2023-01-18T20:00:15.525Z,4.30
2023-01-18T20:02:46.414Z,4.30
2023-01-18T20:05:20.395Z,4.10
2023-01-18T20:07:51.403Z,4.10
2023-01-18T20:10:21.845Z,4.10
2023-01-18T20:12:52.928Z,4.10
2023-01-18T20:15:23.271Z,4.10
2023-01-18T20:17:54.155Z,4.10
2023-01-18T20:20:32.462Z,4.20
2023-01-18T20:23:05.780Z,4.00
2023-01-18T20:25:36.486Z,4.00
2023-01-18T20:28:07.217Z,4.00
2023-01-18T20:30:37.544Z,4.00
2023-01-18T20:33:08.126Z,4.00
2023-01-18T20:35:41.416Z,3.90
2023-01-18T20:38:12.742Z,4.00
2023-01-18T20:40:43.403Z,4.00
2023-01-18T20:43:14.202Z,4.00
2023-01-18T20:45:44.583Z,4.00
2023-01-18T20:48:15.750Z,3.90
2023-01-18T20:50:48.666Z,3.90
2023-01-18T20:53:19.057Z,3.80
2023-01-18T20:55:49.345Z,3.90
2023-01-18T20:58:19.891Z,3.80
2023-01-18T21:00:50.370Z,4.00
2023-01-18T21:03:20.937Z,3.80
2023-01-18T21:05:56.239Z,3.90
2023-01-18T21:08:26.830Z,3.80
2023-01-18T21:10:57.114Z,3.90
2023-01-18T21:13:27.610Z,3.80
2023-01-18T21:15:59.110Z,3.80
2023-01-18T21:18:29.498Z,3.80
2023-01-18T21:21:03.274Z,3.90
2023-01-18T21:23:38.033Z,3.90
2023-01-18T21:26:10.380Z,3.80
2023-01-18T21:28:41.291Z,3.80
2023-01-18T21:31:11.745Z,3.80
2023-01-18T21:33:42.628Z,3.80
2023-01-18T21:36:17.664Z,3.80
2023-01-18T21:38:48.148Z,3.80
2023-01-18T21:41:30.942Z,3.80
2023-01-18T21:44:13.714Z,3.80
2023-01-18T21:46:48.538Z,3.80
2023-01-18T21:49:52.080Z,3.80
2023-01-18T21:52:36.542Z,3.80
2023-01-18T21:55:07.423Z,3.80
2023-01-18T21:57:38.843Z,3.90
2023-01-18T22:00:11.506Z,3.90
2023-01-18T22:02:41.907Z,3.80
2023-01-18T22:05:12.818Z,3.80
2023-01-18T22:07:45.740Z,3.80
2023-01-18T22:10:16.270Z,3.80
2023-01-18T22:12:46.650Z,3.90
2023-01-18T22:15:20.344Z,4.00
2023-01-18T22:17:50.776Z,3.90
2023-01-18T22:20:21.448Z,3.90
2023-01-18T22:22:54.519Z,3.90
2023-01-18T22:25:25.060Z,3.90
2023-01-18T22:27:55.440Z,3.90
2023-01-18T22:30:25.941Z,3.90
2023-01-18T22:32:56.241Z,3.90
2023-01-18T22:35:26.898Z,3.80
2023-01-18T22:37:59.998Z,3.80
2023-01-18T22:40:30.613Z,3.90
2023-01-18T22:43:00.948Z,3.70
2023-01-18T22:45:31.524Z,3.80
2023-01-18T22:48:02.179Z,3.80
2023-01-18T22:50:32.756Z,3.80
2023-01-18T22:53:05.920Z,3.80
2023-01-18T22:55:37.173Z,3.80
2023-01-18T22:58:07.556Z,3.80
2023-01-18T23:00:41.975Z,3.80
2023-01-18T23:03:13.838Z,3.80
2023-01-18T23:05:44.925Z,3.80
2023-01-18T23:08:17.819Z,3.80
2023-01-18T23:10:52.871Z,3.80
2023-01-18T23:13:23.579Z,3.80
2023-01-18T23:16:06.718Z,3.80
2023-01-18T23:18:53.368Z,3.80
2023-01-18T23:21:31.763Z,3.70
2023-01-18T23:24:05.052Z,3.70
2023-01-18T23:26:35.762Z,3.70
2023-01-18T23:29:09.024Z,3.60
2023-01-18T23:31:48.933Z,3.70
2023-01-18T23:34:19.837Z,3.70
2023-01-18T23:36:51.459Z,3.70
2023-01-18T23:39:37.042Z,3.70
2023-01-18T23:42:21.057Z,3.60
2023-01-18T23:45:03.729Z,3.60
2023-01-18T23:47:46.744Z,3.70
2023-01-18T23:50:30.279Z,3.60
2023-01-18T23:53:15.507Z,3.60
2023-01-18T23:55:50.423Z,3.60
2023-01-18T23:58:33.630Z,3.60
